createdAt,value
2018-04-24T06:05:51.830Z,1158.75
2018-04-24T06:06:50.023Z,1243.13
2018-04-24T06:07:50.237Z,1276.88
2018-04-24T06:08:50.470Z,1254.38
2018-04-24T06:09:50.583Z,1203.75
2018-04-24T06:10:50.799Z,1170.00
2018-04-24T06:11:52.835Z,1141.88
2018-04-24T06:12:52.832Z,1147.50
2018-04-24T06:13:51.306Z,1085.63
2018-04-24T06:14:53.326Z,933.75
2018-04-24T06:15:51.671Z,1091.25
2018-04-24T06:16:51.888Z,1136.25
2018-04-24T06:17:52.101Z,1164.38
2018-04-24T06:18:54.863Z,1248.75
2018-04-24T06:19:54.350Z,1271.25
2018-04-24T06:20:52.695Z,1226.25
2018-04-24T06:21:52.917Z,1170.00
2018-04-24T06:22:53.138Z,1395.00
2018-04-24T06:23:53.343Z,1451.25
2018-04-24T06:24:55.350Z,1383.75
2018-04-24T06:25:53.785Z,1591.88
2018-04-24T06:26:53.999Z,1738.13
2018-04-24T06:27:54.237Z,1614.38
2018-04-24T06:28:54.445Z,1608.75
2018-04-24T06:29:56.328Z,1631.25
2018-04-24T06:30:54.787Z,1631.25
2018-04-24T06:31:56.828Z,1738.13
2018-04-24T06:32:55.198Z,1636.88
2018-04-24T06:33:55.297Z,1659.38
2018-04-24T06:34:55.517Z,1766.25
2018-04-24T06:35:55.774Z,1783.13
2018-04-24T06:36:57.832Z,1946.25
2018-04-24T06:37:56.174Z,1980.00
2018-04-24T06:38:56.390Z,1861.88
2018-04-24T06:39:56.605Z,1850.63
2018-04-24T06:40:56.830Z,1631.25
2018-04-24T06:41:57.041Z,1541.25
2018-04-24T06:42:57.261Z,1411.88
2018-04-24T06:43:57.480Z,1395.00
2018-04-24T06:44:57.696Z,1350.00
2018-04-24T06:45:57.914Z,1372.50
2018-04-24T06:46:58.134Z,1344.38
2018-04-24T06:48:00.332Z,1276.88
2018-04-24T06:48:58.550Z,1321.88
2018-04-24T06:49:58.766Z,1321.88
2018-04-24T06:50:58.977Z,1265.63
2018-04-24T06:51:59.211Z,1276.88
2018-04-24T06:52:59.307Z,1226.25
2018-04-24T06:53:59.517Z,1186.88
2018-04-24T06:54:59.821Z,1102.50
2018-04-24T06:55:59.957Z,1051.88
2018-04-24T06:57:00.271Z,1074.38
2018-04-24T06:58:00.311Z,1068.75
2018-04-24T06:59:00.526Z,1040.63
2018-04-24T07:00:00.765Z,984.38
2018-04-24T07:01:00.985Z,995.63
2018-04-24T07:02:01.204Z,1051.88
2018-04-24T07:03:01.425Z,1096.88
2018-04-24T07:04:01.633Z,1080.00
2018-04-24T07:05:01.848Z,1141.88
2018-04-24T07:06:02.081Z,1209.38
2018-04-24T07:07:03.734Z,1282.50
2018-04-24T07:08:02.444Z,1344.38
2018-04-24T07:09:02.648Z,1445.63
2018-04-24T07:10:02.867Z,1490.63
2018-04-24T07:11:03.101Z,1569.38
2018-04-24T07:12:06.834Z,1631.25
2018-04-24T07:13:03.543Z,1783.13
2018-04-24T07:16:14.508Z,1912.50
2018-04-24T07:17:12.965Z,1833.75
2018-04-24T07:18:13.185Z,1642.50
2018-04-24T07:19:13.392Z,1625.63
2018-04-24T07:20:13.603Z,1738.13
2018-04-24T07:21:13.820Z,1878.75
2018-04-24T07:22:14.093Z,1895.63
2018-04-24T07:23:14.316Z,1901.25
2018-04-24T07:24:14.454Z,1923.75
2018-04-24T07:25:16.522Z,2109.38
2018-04-24T07:26:16.514Z,2086.88
2018-04-24T07:27:16.307Z,2030.63
2018-04-24T07:28:15.257Z,2418.75
2018-04-24T07:29:15.472Z,2643.75
2018-04-24T07:30:18.789Z,2463.75
2018-04-24T07:31:17.501Z,2683.13
2018-04-24T07:32:16.094Z,2413.13
2018-04-24T07:33:18.000Z,2452.50
2018-04-24T07:34:18.040Z,2655.00
2018-04-24T07:35:16.593Z,2694.38
2018-04-24T07:36:16.822Z,2745.00
2018-04-24T07:37:17.047Z,2913.75
2018-04-24T07:38:17.264Z,3026.25
2018-04-24T07:39:18.482Z,3161.25
2018-04-24T07:40:17.706Z,3133.13
2018-04-24T07:41:18.950Z,3234.38
2018-04-24T07:42:18.135Z,3425.63
2018-04-24T07:43:20.018Z,3386.25
2018-04-24T07:44:18.487Z,2902.50
2018-04-24T07:45:18.707Z,2812.50
2018-04-24T07:46:18.910Z,2941.88
2018-04-24T07:47:21.004Z,2998.13
2018-04-24T07:48:19.354Z,2823.75
2018-04-24T07:49:22.498Z,3060.00
2018-04-24T07:50:21.509Z,2970.00
2018-04-24T07:51:19.853Z,3020.63
2018-04-24T07:52:20.101Z,3121.88
2018-04-24T07:53:22.018Z,2970.00
2018-04-24T07:54:20.379Z,2778.75
2018-04-24T07:55:24.517Z,2795.63
2018-04-24T07:56:22.516Z,2728.13
2018-04-24T07:57:21.910Z,2880.00
2018-04-24T07:58:23.009Z,3003.75
2018-04-24T07:59:22.317Z,3161.25
2018-04-24T08:00:21.465Z,3341.25
2018-04-24T08:01:23.511Z,3521.25
2018-04-24T08:02:21.913Z,3318.75
2018-04-24T08:03:22.083Z,3577.50
2018-04-24T08:04:22.306Z,3785.63
2018-04-24T08:05:23.521Z,3695.63
2018-04-24T08:06:24.506Z,2896.88
2018-04-24T08:07:23.034Z,3465.00
2018-04-24T08:08:26.014Z,3633.75
2018-04-24T08:09:25.021Z,3600.00
2018-04-24T08:10:29.045Z,3678.75
2018-04-24T08:11:24.664Z,3504.38
2018-04-24T08:12:25.521Z,3369.38
2018-04-24T08:13:28.024Z,3414.38
2018-04-24T08:14:49.043Z,3358.13
2018-04-24T08:15:26.065Z,3352.50
2018-04-24T08:16:40.515Z,3262.50
2018-04-24T08:17:26.510Z,3684.38
2018-04-24T08:18:27.508Z,3892.50
2018-04-24T08:19:27.532Z,3960.00
2018-04-24T08:20:33.015Z,3481.88
2018-04-24T08:21:25.365Z,3695.63
2018-04-24T08:22:29.107Z,3465.00
2018-04-24T08:23:30.753Z,3639.38
2018-04-24T08:24:27.531Z,4213.13
2018-04-24T08:25:26.436Z,4331.25
2018-04-24T08:26:29.494Z,4359.38
2018-04-24T08:27:29.565Z,4365.00
2018-04-24T08:28:30.522Z,4044.38
2018-04-24T08:29:33.521Z,4213.13
2018-04-24T08:30:29.561Z,3650.63
2018-04-24T08:31:27.169Z,3566.25
2018-04-24T08:32:29.010Z,3301.88
2018-04-24T08:33:30.028Z,2930.63
2018-04-24T08:34:29.515Z,3144.38
2018-04-24T08:35:30.536Z,2778.75
2018-04-24T08:36:32.014Z,3886.88
2018-04-24T08:37:34.221Z,3757.50
2018-04-24T08:38:30.011Z,3819.38
2018-04-24T08:39:28.611Z,3853.13
2018-04-24T08:40:28.848Z,3853.13
2018-04-24T08:41:30.517Z,3521.25
2018-04-24T08:42:31.043Z,3459.38
2018-04-24T08:43:29.282Z,3166.88
2018-04-24T08:44:29.518Z,3369.38
2018-04-24T08:45:30.749Z,3802.50
2018-04-24T08:46:31.509Z,3723.75
2018-04-24T08:47:32.045Z,3577.50
2018-04-24T08:48:32.019Z,3864.38
2018-04-24T08:49:30.673Z,3380.63
2018-04-24T08:50:34.523Z,2812.50
2018-04-24T08:51:32.026Z,2452.50
2018-04-24T08:52:32.183Z,2362.50
2018-04-24T08:53:33.017Z,2070.00
2018-04-24T08:54:32.512Z,1766.25
2018-04-24T08:55:31.735Z,1591.88
2018-04-24T08:56:33.505Z,1811.25
2018-04-24T08:57:32.978Z,2655.00
2018-04-24T08:58:36.008Z,2598.75
2018-04-24T08:59:32.374Z,2368.13
2018-04-24T09:00:36.621Z,2829.38
2018-04-24T09:01:34.521Z,3037.50
2018-04-24T09:02:34.645Z,2632.50
2018-04-24T09:03:34.072Z,2688.75
2018-04-24T09:04:36.705Z,2981.25
2018-04-24T09:05:33.609Z,3223.13
2018-04-24T09:06:34.753Z,2677.50
2018-04-24T09:07:49.512Z,2655.00
2018-04-24T09:08:35.229Z,4770.00
2018-04-24T09:09:36.015Z,2323.13
2018-04-24T09:10:40.024Z,2306.25
2018-04-24T09:11:34.653Z,2424.38
2018-04-24T09:12:34.844Z,2244.38
2018-04-24T09:13:38.524Z,4230.00
2018-04-24T09:14:35.183Z,4303.13
2018-04-24T09:15:38.057Z,4528.13
2018-04-24T09:16:35.424Z,3999.38
2018-04-24T09:17:43.523Z,3920.63
2018-04-24T09:18:39.533Z,3976.88
2018-04-24T09:19:39.005Z,3718.13
2018-04-24T09:20:40.032Z,3853.13
2018-04-24T09:21:47.026Z,4078.13
2018-04-24T09:22:39.505Z,4353.75
2018-04-24T09:23:37.801Z,4691.25
2018-04-24T09:24:36.938Z,4483.13
2018-04-24T09:25:39.010Z,4269.38
2018-04-24T09:26:39.024Z,4224.38
2018-04-24T09:27:39.013Z,4224.38
2018-04-24T09:28:41.525Z,4342.50
2018-04-24T09:29:40.539Z,3577.50
2018-04-24T09:30:38.492Z,3015.00
2018-04-24T09:31:38.992Z,2418.75
2018-04-24T09:32:40.009Z,2199.38
2018-04-24T09:33:46.050Z,2278.13
2018-04-24T09:34:38.618Z,2261.25
2018-04-24T09:35:39.855Z,3465.00
2018-04-24T09:37:00.100Z,3144.38
2018-04-24T09:37:39.205Z,4696.88
2018-04-24T09:38:41.016Z,4061.25
2018-04-24T09:39:41.515Z,1800.00
2018-04-24T09:40:42.473Z,1524.38
2018-04-24T09:41:41.121Z,1878.75
2018-04-24T09:42:42.028Z,1890.00
2018-04-24T09:43:40.389Z,1732.50
2018-04-24T09:45:09.652Z,1631.25
2018-04-24T09:45:42.204Z,1580.63
2018-04-24T09:46:41.225Z,1597.50
2018-04-24T09:47:43.075Z,1563.75
2018-04-24T09:48:41.481Z,1580.63
2018-04-24T09:49:41.655Z,1681.88
2018-04-24T09:50:41.983Z,1749.38
2018-04-24T09:51:42.078Z,1861.88
2018-04-24T09:52:42.219Z,2047.50
2018-04-24T09:53:44.046Z,2053.13
2018-04-24T09:54:44.523Z,1895.63
2018-04-24T09:55:44.698Z,1895.63
2018-04-24T09:56:43.269Z,2064.38
2018-04-24T09:57:44.231Z,1929.38
2018-04-24T09:58:46.039Z,1929.38
2018-04-24T09:59:43.632Z,2058.75
2018-04-24T10:00:43.857Z,2047.50
2018-04-24T10:01:48.019Z,1839.38
2018-04-24T10:02:44.246Z,1665.00
2018-04-24T10:03:46.019Z,1575.00
2018-04-24T10:04:46.520Z,1546.88
2018-04-24T10:05:44.774Z,1760.63
2018-04-24T10:06:44.978Z,2030.63
2018-04-24T10:07:45.258Z,1749.38
2018-04-24T10:08:45.429Z,1710.00
2018-04-24T10:09:45.649Z,1811.25
2018-04-24T10:10:45.868Z,1867.50
2018-04-24T10:11:48.022Z,1873.13
2018-04-24T10:12:46.287Z,1648.13
2018-04-24T10:13:46.492Z,1507.50
2018-04-24T10:14:50.515Z,1501.88
2018-04-24T10:15:46.861Z,1580.63
2018-04-24T10:16:47.085Z,1704.38
2018-04-24T10:17:49.015Z,1721.25
2018-04-24T10:18:47.501Z,1636.88
2018-04-24T10:19:49.626Z,1625.63
2018-04-24T10:20:47.898Z,1704.38
2018-04-24T10:21:48.111Z,1856.25
2018-04-24T10:22:48.336Z,1822.50
2018-04-24T10:23:48.573Z,1665.00
2018-04-24T10:24:48.789Z,1586.25
2018-04-24T10:25:49.018Z,1569.38
2018-04-24T10:26:49.238Z,1558.13
2018-04-24T10:27:50.470Z,1569.38
2018-04-24T10:28:49.693Z,1580.63
2018-04-24T10:29:49.921Z,1575.00
2018-04-24T10:30:50.152Z,1608.75
2018-04-24T10:31:50.375Z,1608.75
2018-04-24T10:32:50.590Z,1625.63
2018-04-24T10:33:50.814Z,1676.25
2018-04-24T10:34:51.032Z,1670.63
2018-04-24T10:35:53.027Z,1755.00
2018-04-24T10:36:53.035Z,2036.25
2018-04-24T10:37:51.621Z,1884.38
2018-04-24T10:38:51.859Z,1766.25
2018-04-24T10:39:54.032Z,1631.25
2018-04-24T10:40:52.247Z,1693.13
2018-04-24T10:41:52.518Z,1743.75
2018-04-24T10:42:52.689Z,1800.00
2018-04-24T10:43:52.977Z,1760.63
2018-04-24T10:44:53.155Z,2053.13
2018-04-24T10:45:53.372Z,1726.88
2018-04-24T10:46:55.537Z,2621.25
2018-04-24T10:47:53.764Z,2694.38
2018-04-24T10:48:55.533Z,3870.00
2018-04-24T10:49:56.020Z,3515.63
2018-04-24T10:50:54.397Z,4404.38
2018-04-24T10:51:56.080Z,4966.88
2018-04-24T10:52:54.747Z,5118.75
2018-04-24T10:53:55.961Z,4606.88
2018-04-24T10:54:59.061Z,4106.25
2018-04-24T10:55:57.037Z,4691.25
2018-04-24T10:56:57.530Z,3555.00
2018-04-24T10:57:56.779Z,2160.00
2018-04-24T10:58:55.894Z,2475.00
2018-04-24T11:00:00.060Z,3082.50
2018-04-24T11:00:59.034Z,3808.13
2018-04-24T11:01:58.032Z,2210.63
2018-04-24T11:02:58.020Z,1985.63
2018-04-24T11:03:58.552Z,2846.25
2018-04-24T11:04:58.525Z,3161.25
2018-04-24T11:06:12.539Z,3150.00
2018-04-24T11:06:59.040Z,3161.25
2018-04-24T11:07:57.250Z,2345.63
2018-04-24T11:08:58.521Z,2722.50
2018-04-24T11:09:58.607Z,3037.50
2018-04-24T11:11:00.588Z,3093.75
2018-04-24T11:11:59.112Z,2863.13
2018-04-24T11:13:02.041Z,1620.00
2018-04-24T11:14:00.022Z,1417.50
2018-04-24T11:14:58.636Z,1186.88
2018-04-24T11:15:59.876Z,1141.88
2018-04-24T11:16:59.098Z,1096.88
2018-04-24T11:17:59.334Z,1085.63
2018-04-24T11:19:02.537Z,1063.13
2018-04-24T11:20:00.765Z,1035.00
2018-04-24T11:20:59.977Z,1006.88
2018-04-24T11:22:03.047Z,978.75
2018-04-24T11:23:02.048Z,961.88
2018-04-24T11:24:00.635Z,978.75
2018-04-24T11:25:02.523Z,1029.38
2018-04-24T11:26:01.015Z,1051.88
2018-04-24T11:27:01.121Z,1074.38
2018-04-24T11:28:01.349Z,1074.38
2018-04-24T11:29:01.569Z,1068.75
2018-04-24T11:30:03.526Z,1080.00
2018-04-24T11:31:02.008Z,1068.75
2018-04-24T11:32:02.226Z,933.75
2018-04-24T11:33:02.450Z,905.63
2018-04-24T11:34:02.707Z,894.38
2018-04-24T11:35:04.527Z,888.75
2018-04-24T11:36:03.199Z,888.75
2018-04-24T11:37:03.340Z,883.13
2018-04-24T11:38:05.533Z,877.50
2018-04-24T11:39:03.756Z,838.13
2018-04-24T11:40:05.541Z,843.75
2018-04-24T11:41:06.026Z,838.13
2018-04-24T11:42:04.276Z,832.50
2018-04-24T11:43:04.501Z,838.13
2018-04-24T11:44:04.799Z,832.50
2018-04-24T11:45:04.941Z,832.50
2018-04-24T11:46:05.151Z,849.38
2018-04-24T11:47:05.377Z,787.50
2018-04-24T11:48:07.528Z,753.75
2018-04-24T11:49:08.536Z,753.75
2018-04-24T11:50:05.885Z,770.63
2018-04-24T11:51:06.102Z,765.00
2018-04-24T11:52:06.319Z,765.00
2018-04-24T11:53:06.559Z,770.63
2018-04-24T11:54:06.764Z,776.25
2018-04-24T11:55:08.527Z,787.50
2018-04-24T11:56:07.129Z,793.13
2018-04-24T11:57:07.366Z,815.63
2018-04-24T11:58:07.561Z,877.50
2018-04-24T11:59:09.534Z,916.88
2018-04-24T12:00:07.998Z,911.25
2018-04-24T12:01:08.218Z,916.88
2018-04-24T12:02:08.450Z,916.88
2018-04-24T12:03:08.655Z,911.25
2018-04-24T12:04:08.884Z,905.63
2018-04-24T12:05:09.108Z,933.75
2018-04-24T12:06:09.370Z,967.50
2018-04-24T12:07:09.554Z,1051.88
2018-04-24T12:08:09.784Z,1096.88
2018-04-24T12:09:09.993Z,1068.75
2018-04-24T12:10:10.220Z,984.38
2018-04-24T12:11:14.037Z,961.88
2018-04-24T12:12:10.629Z,961.88
2018-04-24T12:13:10.839Z,939.38
2018-04-24T12:14:11.069Z,843.75
2018-04-24T12:15:11.289Z,804.38
2018-04-24T12:16:11.510Z,748.13
2018-04-24T12:17:13.535Z,725.63
2018-04-24T12:18:11.868Z,708.75
2018-04-24T12:19:12.085Z,691.88
2018-04-24T12:20:12.307Z,663.75
2018-04-24T12:21:12.558Z,641.25
2018-04-24T12:22:14.547Z,624.38
2018-04-24T12:23:13.004Z,618.75
2018-04-24T12:24:13.218Z,635.63
2018-04-24T12:25:13.431Z,652.50
2018-04-24T12:26:13.662Z,680.63
2018-04-24T12:27:13.883Z,731.25
2018-04-24T12:28:14.118Z,798.75
2018-04-24T12:29:14.328Z,849.38
2018-04-24T12:30:14.544Z,888.75
2018-04-24T12:31:14.774Z,911.25
2018-04-24T12:32:15.004Z,933.75
2018-04-24T12:33:15.206Z,1006.88
2018-04-24T12:34:15.422Z,1057.50
2018-04-24T12:35:15.644Z,1136.25
2018-04-24T12:36:15.895Z,1276.88
2018-04-24T12:37:16.092Z,1395.00
2018-04-24T12:38:16.303Z,1215.00
2018-04-24T12:39:16.515Z,1192.50
2018-04-24T12:40:16.729Z,1265.63
2018-04-24T12:41:17.431Z,1507.50
2018-04-24T12:42:19.293Z,1411.88
2018-04-24T12:43:17.493Z,1642.50
2018-04-24T12:44:19.160Z,1389.38
2018-04-24T12:45:17.832Z,1552.50
2018-04-24T12:46:17.887Z,1631.25
2018-04-24T12:47:18.048Z,1456.88
2018-04-24T12:48:18.232Z,1254.38
2018-04-24T12:49:18.475Z,1119.38
2018-04-24T12:50:18.674Z,1063.13
2018-04-24T12:51:18.898Z,1158.75
2018-04-24T12:52:19.149Z,1130.63
2018-04-24T12:53:21.052Z,1125.00
2018-04-24T12:54:19.531Z,1119.38
2018-04-24T12:55:19.758Z,1074.38
2018-04-24T12:56:21.543Z,1012.50
2018-04-24T12:57:20.136Z,950.63
2018-04-24T12:58:24.215Z,911.25
2018-04-24T12:59:20.555Z,905.63
2018-04-24T13:00:20.838Z,916.88
2018-04-24T13:01:20.973Z,973.13
2018-04-24T13:02:21.163Z,973.13
2018-04-24T13:03:21.372Z,973.13
2018-04-24T13:04:29.587Z,1006.88
2018-04-24T13:05:21.978Z,1164.38
2018-04-24T13:06:21.948Z,1186.88
2018-04-24T13:07:22.166Z,1293.75
2018-04-24T13:08:22.387Z,1321.88
2018-04-24T13:09:22.594Z,1321.88
2018-04-24T13:10:22.834Z,1423.13
2018-04-24T13:11:23.049Z,1479.38
2018-04-24T13:12:23.272Z,1451.25
2018-04-24T13:13:23.489Z,1530.00
2018-04-24T13:14:23.725Z,1687.50
2018-04-24T13:15:23.950Z,1620.00
2018-04-24T13:16:24.168Z,1665.00
2018-04-24T13:17:26.043Z,1575.00
2018-04-24T13:18:28.568Z,1530.00
2018-04-24T13:19:24.882Z,1468.13
2018-04-24T13:20:25.106Z,1434.38
2018-04-24T13:21:25.898Z,1423.13
2018-04-24T13:22:25.484Z,1417.50
2018-04-24T13:23:27.549Z,1400.63
2018-04-24T13:24:26.082Z,1389.38
2018-04-24T13:25:26.158Z,1378.13
2018-04-24T13:26:26.344Z,1333.13
2018-04-24T13:27:30.579Z,1299.38
2018-04-24T13:28:28.541Z,1265.63
2018-04-24T13:29:27.012Z,1248.75
2018-04-24T13:30:33.047Z,1248.75
2018-04-24T13:31:27.379Z,1243.13
2018-04-24T13:32:27.601Z,1231.88
2018-04-24T13:33:29.542Z,1209.38
2018-04-24T13:34:28.011Z,1175.63
2018-04-24T13:35:28.242Z,1170.00
2018-04-24T13:36:30.041Z,1170.00
2018-04-24T13:37:28.634Z,1186.88
2018-04-24T13:38:29.825Z,1209.38
2018-04-24T13:39:31.039Z,1203.75
2018-04-24T13:40:31.038Z,1203.75
2018-04-24T13:41:29.404Z,1181.25
2018-04-24T13:42:29.549Z,1181.25
2018-04-24T13:43:29.724Z,1170.00
2018-04-24T13:44:31.545Z,1153.13
2018-04-24T13:45:30.184Z,1136.25
2018-04-24T13:46:38.036Z,1113.75
2018-04-24T13:47:33.050Z,1096.88
2018-04-24T13:48:33.539Z,1108.13
2018-04-24T13:49:30.874Z,1102.50
2018-04-24T13:50:31.111Z,1119.38
2018-04-24T13:51:31.343Z,1119.38
2018-04-24T13:52:31.561Z,1136.25
2018-04-24T13:53:31.796Z,1130.63
2018-04-24T13:54:31.998Z,1141.88
2018-04-24T13:55:32.243Z,1125.00
2018-04-24T13:56:32.443Z,1119.38
2018-04-24T13:57:33.683Z,1108.13
2018-04-24T13:58:32.837Z,1096.88
2018-04-24T13:59:32.944Z,1091.25
2018-04-24T14:00:33.170Z,1085.63
2018-04-24T14:01:33.402Z,1068.75
2018-04-24T14:02:37.547Z,1074.38
2018-04-24T14:03:37.543Z,1068.75
2018-04-24T14:04:33.899Z,1063.13
2018-04-24T14:05:35.165Z,1063.13
2018-04-24T14:06:36.076Z,1057.50
2018-04-24T14:07:34.504Z,1046.25
2018-04-24T14:08:34.722Z,1029.38
2018-04-24T14:09:34.953Z,1018.13
2018-04-24T14:10:35.175Z,1012.50
2018-04-24T14:11:37.043Z,1012.50
2018-04-24T14:12:35.683Z,1012.50
2018-04-24T14:13:35.862Z,1012.50
2018-04-24T14:14:36.077Z,1006.88
2018-04-24T14:15:36.318Z,990.00
2018-04-24T14:16:36.553Z,984.38
2018-04-24T14:17:38.543Z,973.13
2018-04-24T14:18:36.880Z,961.88
2018-04-24T14:19:37.110Z,961.88
2018-04-24T14:20:40.043Z,950.63
2018-04-24T14:21:40.228Z,945.00
2018-04-24T14:22:39.549Z,950.63
2018-04-24T14:23:39.553Z,933.75
2018-04-24T14:24:39.539Z,922.50
2018-04-24T14:25:38.139Z,916.88
2018-04-24T14:26:40.044Z,911.25
2018-04-24T14:27:38.511Z,911.25
2018-04-24T14:28:38.739Z,911.25
2018-04-24T14:29:38.958Z,911.25
2018-04-24T14:30:39.172Z,916.88
2018-04-24T14:31:39.396Z,916.88
2018-04-24T14:32:39.619Z,916.88
2018-04-24T14:33:39.845Z,916.88
2018-04-24T14:34:40.063Z,916.88
2018-04-24T14:35:42.102Z,916.88
2018-04-24T14:36:42.042Z,911.25
2018-04-24T14:37:40.631Z,916.88
2018-04-24T14:38:40.857Z,916.88
2018-04-24T14:39:41.122Z,916.88
2018-04-24T14:40:41.319Z,916.88
2018-04-24T14:41:41.538Z,916.88
2018-04-24T14:42:41.787Z,916.88
2018-04-24T14:43:41.987Z,911.25
2018-04-24T14:44:42.222Z,911.25
2018-04-24T14:45:42.329Z,911.25
2018-04-24T14:46:42.540Z,905.63
2018-04-24T14:47:42.754Z,894.38
2018-04-24T14:48:42.967Z,888.75
2018-04-24T14:49:43.187Z,888.75
2018-04-24T14:50:43.396Z,894.38
2018-04-24T14:51:43.618Z,888.75
2018-04-24T14:52:43.828Z,888.75
2018-04-24T14:53:46.569Z,877.50
2018-04-24T14:54:44.272Z,855.00
2018-04-24T14:55:44.492Z,843.75
2018-04-24T14:56:44.713Z,810.00
2018-04-24T14:57:44.931Z,781.88
2018-04-24T14:58:45.142Z,815.63
2018-04-24T14:59:45.359Z,815.63
2018-04-24T15:00:45.583Z,781.88
2018-04-24T15:01:45.799Z,781.88
2018-04-24T15:02:46.012Z,759.38
2018-04-24T15:03:46.230Z,776.25
2018-04-24T15:04:48.044Z,770.63
2018-04-24T15:05:46.648Z,765.00
2018-04-24T15:06:46.868Z,759.38
2018-04-24T15:07:49.049Z,736.88
2018-04-24T15:08:47.274Z,720.00
2018-04-24T15:09:47.480Z,714.38
2018-04-24T15:10:47.715Z,680.63
2018-04-24T15:11:47.934Z,680.63
2018-04-24T15:12:48.152Z,691.88
2018-04-24T15:13:48.365Z,708.75
2018-04-24T15:14:48.592Z,714.38
2018-04-24T15:15:50.561Z,669.38
2018-04-24T15:16:49.032Z,663.75
2018-04-24T15:17:51.064Z,669.38
2018-04-24T15:18:49.398Z,675.00
2018-04-24T15:19:49.612Z,635.63
2018-04-24T15:20:49.845Z,658.13
2018-04-24T15:21:50.057Z,613.13
2018-04-24T15:22:50.280Z,590.63
2018-04-24T15:23:50.508Z,585.00
2018-04-24T15:24:50.717Z,579.38
2018-04-24T15:25:50.996Z,579.38
2018-04-24T15:26:51.175Z,596.25
2018-04-24T15:27:53.055Z,585.00
2018-04-24T15:28:51.532Z,590.63
2018-04-24T15:29:51.748Z,613.13
2018-04-24T15:30:51.958Z,607.50
2018-04-24T15:31:52.182Z,641.25
2018-04-24T15:32:52.417Z,624.38
2018-04-24T15:33:52.649Z,630.00
2018-04-24T15:34:52.913Z,624.38
2018-04-24T15:35:53.103Z,596.25
2018-04-24T15:36:53.322Z,596.25
2018-04-24T15:37:53.577Z,635.63
2018-04-24T15:38:53.754Z,646.88
2018-04-24T15:39:56.563Z,663.75
2018-04-24T15:40:54.156Z,624.38
2018-04-24T15:41:54.374Z,663.75
2018-04-24T15:42:57.573Z,669.38
2018-04-24T15:43:54.828Z,691.88
2018-04-24T15:44:55.007Z,708.75
2018-04-24T15:45:55.233Z,686.25
2018-04-24T15:46:55.447Z,669.38
2018-04-24T15:47:59.611Z,669.38
2018-04-24T15:48:55.809Z,635.63
2018-04-24T15:49:56.021Z,658.13
2018-04-24T15:50:56.245Z,618.75
2018-04-24T15:51:56.460Z,630.00
2018-04-24T15:52:56.680Z,613.13
2018-04-24T15:53:56.897Z,607.50
2018-04-24T15:54:57.192Z,624.38
2018-04-24T15:55:59.046Z,646.88
2018-04-24T15:56:59.048Z,686.25
2018-04-24T15:57:57.637Z,675.00
2018-04-24T15:58:57.871Z,663.75
2018-04-24T15:59:58.091Z,658.13
2018-04-24T16:00:58.303Z,641.25
2018-04-24T16:01:58.521Z,630.00
2018-04-24T16:02:58.787Z,618.75
2018-04-24T16:03:58.963Z,585.00
2018-04-24T16:05:01.051Z,500.63
2018-04-24T16:05:59.396Z,455.63
2018-04-24T16:07:01.572Z,421.88
2018-04-24T16:07:59.800Z,393.75
2018-04-24T16:08:59.912Z,382.50
2018-04-24T16:10:02.057Z,405.00
2018-04-24T16:11:00.256Z,348.75
2018-04-24T16:12:00.471Z,371.25
2018-04-24T16:13:00.690Z,427.50
2018-04-24T16:14:00.897Z,427.50
2018-04-24T16:15:01.125Z,421.88
2018-04-24T16:16:01.341Z,427.50
2018-04-24T16:17:01.559Z,438.75
2018-04-24T16:18:01.787Z,427.50
2018-04-24T16:19:02.010Z,354.38
2018-04-24T16:20:02.228Z,360.00
2018-04-24T16:21:02.457Z,455.63
2018-04-24T16:22:02.670Z,450.00
2018-04-24T16:23:02.908Z,376.88
2018-04-24T16:24:03.630Z,365.63
2018-04-24T16:25:03.322Z,365.63
2018-04-24T16:26:03.399Z,371.25
2018-04-24T16:27:05.564Z,376.88
2018-04-24T16:28:03.777Z,365.63
2018-04-24T16:29:03.989Z,354.38
2018-04-24T16:30:04.227Z,326.25
2018-04-24T16:31:04.438Z,315.00
2018-04-24T16:32:04.638Z,303.75
2018-04-24T16:33:04.872Z,281.25
2018-04-24T16:34:05.087Z,264.38
2018-04-24T16:35:05.302Z,247.50
2018-04-24T16:36:05.522Z,230.63
2018-04-24T16:37:05.741Z,225.00
2018-04-24T16:38:08.553Z,213.75
2018-04-24T16:39:06.156Z,208.13
2018-04-24T16:40:06.376Z,196.88
2018-04-24T16:41:06.650Z,191.25
2018-04-24T16:42:06.813Z,191.25
2018-04-24T16:43:07.036Z,185.63
2018-04-24T16:44:07.253Z,185.63
2018-04-24T16:45:07.467Z,185.63
2018-04-24T16:46:07.678Z,180.00
2018-04-24T16:47:07.895Z,168.75
2018-04-24T16:48:08.119Z,157.50
2018-04-24T16:49:08.328Z,157.50
2018-04-24T16:50:08.561Z,157.50
2018-04-24T16:51:08.789Z,157.50
2018-04-24T16:52:09.008Z,151.88
2018-04-24T16:53:11.062Z,146.25
2018-04-24T16:54:09.385Z,140.63
2018-04-24T16:55:11.556Z,140.63
2018-04-24T16:56:09.803Z,135.00
2018-04-24T16:57:09.977Z,135.00
2018-04-24T16:58:10.205Z,140.63
2018-04-24T16:59:10.423Z,146.25
2018-04-24T17:00:10.636Z,151.88
2018-04-24T17:01:10.860Z,157.50
2018-04-24T17:02:11.076Z,163.13
2018-04-24T17:03:11.286Z,163.13
2018-04-24T17:04:11.506Z,174.38
2018-04-24T17:05:11.717Z,180.00
2018-04-24T17:06:12.046Z,191.25
2018-04-24T17:07:12.170Z,202.50
2018-04-24T17:08:14.071Z,213.75
2018-04-24T17:09:12.532Z,213.75
2018-04-24T17:10:14.557Z,219.38
2018-04-24T17:11:12.886Z,225.00
2018-04-24T17:12:15.068Z,225.00
2018-04-24T17:13:13.303Z,225.00
2018-04-24T17:14:15.054Z,230.63
2018-04-24T17:15:13.654Z,230.63
2018-04-24T17:16:15.563Z,225.00
2018-04-24T17:17:14.013Z,225.00
2018-04-24T17:18:14.321Z,225.00
2018-04-24T17:19:14.405Z,225.00
2018-04-24T17:20:14.724Z,225.00
2018-04-24T17:21:14.825Z,225.00
2018-04-24T17:22:16.554Z,225.00
2018-04-24T17:23:18.085Z,219.38
2018-04-24T17:24:15.425Z,219.38
2018-04-24T17:25:15.617Z,219.38
2018-04-24T17:26:15.831Z,219.38
2018-04-24T17:27:16.045Z,219.38
2018-04-24T17:28:16.253Z,219.38
2018-04-24T17:29:16.471Z,213.75
2018-04-24T17:30:16.706Z,213.75
2018-04-24T17:31:18.555Z,213.75
2018-04-24T17:32:17.151Z,208.13
2018-04-24T17:33:17.383Z,208.13
2018-04-24T17:34:19.581Z,202.50
2018-04-24T17:35:17.793Z,196.88
2018-04-24T17:36:18.006Z,191.25
2018-04-24T17:37:20.056Z,191.25
2018-04-24T17:38:18.390Z,185.63
2018-04-24T17:39:18.615Z,180.00
2018-04-24T17:40:18.825Z,174.38
2018-04-24T17:41:19.036Z,168.75
2018-04-24T17:42:19.272Z,157.50
2018-04-24T17:43:19.486Z,151.88
2018-04-24T17:44:19.699Z,146.25
2018-04-24T17:45:19.922Z,146.25
2018-04-24T17:46:20.134Z,140.63
2018-04-24T17:47:20.353Z,140.63
2018-04-24T17:48:20.565Z,135.00
2018-04-24T17:49:20.782Z,129.38
2018-04-24T17:50:21.007Z,123.75
2018-04-24T17:51:21.226Z,118.13
2018-04-24T17:52:23.058Z,118.13
2018-04-24T17:53:21.642Z,112.50
2018-04-24T17:54:21.864Z,106.88
2018-04-24T17:55:22.085Z,101.25
2018-04-24T17:56:22.311Z,95.63
2018-04-24T17:57:22.524Z,84.38
2018-04-24T17:58:22.738Z,78.75
2018-04-24T17:59:22.966Z,78.75
2018-04-24T18:00:23.186Z,73.13
2018-04-24T18:01:23.415Z,67.50
2018-04-24T18:02:23.625Z,67.50
2018-04-24T18:03:23.842Z,61.88
2018-04-24T18:04:24.061Z,61.88
2018-04-24T18:05:26.058Z,56.25
2018-04-24T18:06:26.127Z,56.25
2018-04-24T18:07:24.530Z,50.63
2018-04-24T18:08:24.737Z,50.63
2018-04-24T18:09:24.957Z,45.00
2018-04-24T18:10:25.211Z,45.00
2018-04-24T18:11:25.481Z,39.38
2018-04-24T18:12:25.635Z,39.38
2018-04-24T18:13:25.830Z,39.38
2018-04-24T18:14:26.062Z,33.75
2018-04-24T18:15:26.259Z,33.75
2018-04-24T18:16:26.473Z,33.75
2018-04-24T18:17:26.689Z,28.13
2018-04-24T18:18:26.901Z,28.13
2018-04-24T18:19:30.070Z,22.50
2018-04-24T18:20:29.063Z,22.50
2018-04-24T18:21:27.452Z,22.50
2018-04-24T18:22:27.646Z,16.88
2018-04-24T18:23:27.827Z,16.88
2018-04-24T18:24:28.034Z,16.88
2018-04-24T18:25:28.260Z,11.25
2018-04-24T18:26:28.494Z,11.25